Terminal Aerodrome Forecast
Issued by NWS Spokane, WA

Home | Current Version | Previous Version | Text Only | Print | Product List | Glossary On
Versions: 1 2 3 4 5 6 7 8 9 10 11 12 13 14 15 16 17 18 19 20 21 22 23 24 25 26
000
FTUS46 KOTX 171725
TAFGEG
TAF
KGEG 171725Z 1718/1818 05007KT P6SM SCT050 BKN120 BKN200
     FM172200 08004KT P6SM VCSH BKN029 BKN200
     FM180300 08004KT P6SM -RA OVC028
     FM180700 16004KT 4SM -RA BR BKN015 OVC020=

USA.gov is the U.S. government's official web portal to all federal, state and local government web resources and services.